Time,TemperatureF,DewpointF,PressureIn,WindDirection,WindDirectionDegrees,WindSpeedMPH,WindSpeedGustMPH,Humidity,HourlyPrecipIn,Conditions,Clouds,dailyrainin,SoftwareType,DateUTC
2013-02-28 00:00:00,50.4,36.2,30.10,NNW,340,4.0,5.0,58,0.00,,,0.00,Wunderground v.1.15,2013-02-28 06:00:00,
2013-02-28 00:05:00,50.3,35.6,30.10,NNE,16,4.0,6.0,57,0.00,,,0.00,Wunderground v.1.15,2013-02-28 06:05:00,
2013-02-28 00:15:00,50.5,34.9,30.10,NNE,13,6.0,6.0,55,0.00,,,0.00,Wunderground v.1.15,2013-02-28 06:15:00,
2013-02-28 00:25:00,50.2,34.6,30.10,North,4,4.0,5.0,55,0.00,,,0.00,Wunderground v.1.15,2013-02-28 06:25:00,
2013-02-28 00:30:00,50.3,34.7,30.10,NNW,333,4.0,4.0,55,0.00,,,0.00,Wunderground v.1.15,2013-02-28 06:30:00,
2013-02-28 00:35:00,50.3,34.3,30.10,North,351,4.0,6.0,54,0.00,,,0.00,Wunderground v.1.15,2013-02-28 06:35:00,
2013-02-28 00:40:00,50.1,34.1,30.10,NNW,345,4.0,4.0,54,0.00,,,0.00,Wunderground v.1.15,2013-02-28 06:40:00,
2013-02-28 00:45:00,50.0,34.0,30.10,NNW,335,4.0,4.0,54,0.00,,,0.00,Wunderground v.1.15,2013-02-28 06:45:00,
2013-02-28 00:50:00,49.9,34.4,30.10,NNW,342,4.0,4.0,55,0.00,,,0.00,Wunderground v.1.15,2013-02-28 06:50:00,
2013-02-28 00:55:00,49.8,33.8,30.10,NNW,330,4.0,4.0,54,0.00,,,0.00,Wunderground v.1.15,2013-02-28 06:55:00,
2013-02-28 01:00:00,49.7,33.7,30.10,NNW,348,4.0,4.0,54,0.00,,,0.00,Wunderground v.1.15,2013-02-28 07:00:00,
2013-02-28 01:05:00,49.5,34.0,30.10,NNW,341,3.0,9.0,55,0.00,,,0.00,Wunderground v.1.15,2013-02-28 07:05:00,
2013-02-28 01:10:00,48.9,33.9,30.10,NNW,327,2.0,2.0,56,0.00,,,0.00,Wunderground v.1.15,2013-02-28 07:10:00,
2013-02-28 01:15:00,48.8,34.2,30.10,NW,319,2.0,9.0,57,0.00,,,0.00,Wunderground v.1.15,2013-02-28 07:15:00,
2013-02-28 01:20:00,48.5,33.9,30.10,NW,307,2.0,2.0,57,0.00,,,0.00,Wunderground v.1.15,2013-02-28 07:20:00,
2013-02-28 01:30:00,48.3,33.8,30.11,NW,314,1.0,1.0,57,0.00,,,0.00,Wunderground v.1.15,2013-02-28 07:30:00,
2013-02-28 01:35:00,48.0,34.3,30.10,WNW,290,1.0,9.0,59,0.00,,,0.00,Wunderground v.1.15,2013-02-28 07:35:00,
2013-02-28 01:40:00,47.4,35.0,30.11,WNW,296,1.0,9.0,62,0.00,,,0.00,Wunderground v.1.15,2013-02-28 07:40:00,
2013-02-28 01:45:00,46.9,35.0,30.11,West,277,1.0,9.0,63,0.00,,,0.00,Wunderground v.1.15,2013-02-28 07:45:00,
2013-02-28 01:50:00,46.4,35.3,30.11,WNW,292,1.0,9.0,65,0.00,,,0.00,Wunderground v.1.15,2013-02-28 07:50:00,
2013-02-28 02:00:00,45.1,35.2,30.11,NW,308,1.0,1.0,68,0.00,,,0.00,Wunderground v.1.15,2013-02-28 08:00:00,
2013-02-28 02:05:00,44.6,35.4,30.11,NW,306,1.0,9.0,70,0.00,,,0.00,Wunderground v.1.15,2013-02-28 08:05:00,
2013-02-28 02:10:00,44.4,35.6,30.11,WNW,292,1.0,9.0,71,0.00,,,0.00,Wunderground v.1.15,2013-02-28 08:10:00,
2013-02-28 02:15:00,44.3,35.5,30.11,WNW,300,1.0,9.0,71,0.00,,,0.00,Wunderground v.1.15,2013-02-28 08:15:00,
2013-02-28 02:20:00,44.1,35.3,30.11,WNW,300,1.0,1.0,71,0.00,,,0.00,Wunderground v.1.15,2013-02-28 08:20:00,
2013-02-28 02:25:00,43.8,35.4,30.11,WNW,299,0.0,9.0,72,0.00,,,0.00,Wunderground v.1.15,2013-02-28 08:25:00,
2013-02-28 02:35:00,43.9,35.1,30.11,NW,307,0.0,9.0,71,0.00,,,0.00,Wunderground v.1.15,2013-02-28 08:35:00,
2013-02-28 02:40:00,43.8,35.4,30.11,NW,307,0.0,9.0,72,0.00,,,0.00,Wunderground v.1.15,2013-02-28 08:40:00,
2013-02-28 02:45:00,43.6,35.2,30.11,NW,307,0.0,9.0,72,0.00,,,0.00,Wunderground v.1.15,2013-02-28 08:45:00,
2013-02-28 02:50:00,43.2,35.1,30.11,NW,307,0.0,9.0,73,0.00,,,0.00,Wunderground v.1.15,2013-02-28 08:50:00,
2013-02-28 02:55:00,42.9,35.2,30.11,WNW,288,0.0,9.0,74,0.00,,,0.00,Wunderground v.1.15,2013-02-28 08:55:00,
2013-02-28 03:05:00,42.7,35.3,30.10,WNW,285,0.0,9.0,75,0.00,,,0.00,Wunderground v.1.15,2013-02-28 09:05:00,
2013-02-28 03:10:00,42.4,35.7,30.10,WNW,302,1.0,9.0,77,0.00,,,0.00,Wunderground v.1.15,2013-02-28 09:10:00,
2013-02-28 03:15:00,42.0,35.6,30.10,NW,313,1.0,9.0,78,0.00,,,0.00,Wunderground v.1.15,2013-02-28 09:15:00,
2013-02-28 03:20:00,41.8,35.8,30.10,WNW,297,1.0,9.0,79,0.00,,,0.00,Wunderground v.1.15,2013-02-28 09:20:00,
2013-02-28 03:25:00,42.2,35.8,30.10,NW,313,2.0,9.0,78,0.00,,,0.00,Wunderground v.1.15,2013-02-28 09:25:00,
2013-02-28 03:30:00,42.7,36.0,30.10,NW,320,2.0,2.0,77,0.00,,,0.00,Wunderground v.1.15,2013-02-28 09:30:00,
2013-02-28 03:40:00,43.6,35.9,30.10,NW,324,2.0,9.0,74,0.00,,,0.00,Wunderground v.1.15,2013-02-28 09:40:00,
2013-02-28 03:45:00,43.6,35.5,30.10,NNW,335,2.0,9.0,73,0.00,,,0.00,Wunderground v.1.15,2013-02-28 09:45:00,
2013-02-28 03:50:00,43.6,35.2,30.10,NNW,328,3.0,9.0,72,0.00,,,0.00,Wunderground v.1.15,2013-02-28 09:50:00,
2013-02-28 03:55:00,43.8,35.0,30.10,NW,311,3.0,9.0,71,0.00,,,0.00,Wunderground v.1.15,2013-02-28 09:55:00,
2013-02-28 04:00:00,44.1,34.6,30.10,NW,321,4.0,9.0,69,0.00,,,0.00,Wunderground v.1.15,2013-02-28 10:00:00,
2013-02-28 04:05:00,44.2,34.3,30.10,NW,309,4.0,9.0,68,0.00,,,0.00,Wunderground v.1.15,2013-02-28 10:05:00,
2013-02-28 04:10:00,44.2,34.3,30.10,NNW,331,5.0,5.0,68,0.00,,,0.00,Wunderground v.1.15,2013-02-28 10:10:00,
2013-02-28 04:15:00,44.3,34.0,30.10,NNW,331,5.0,9.0,67,0.00,,,0.00,Wunderground v.1.15,2013-02-28 10:15:00,
2013-02-28 04:20:00,44.3,33.7,30.10,North,11,6.0,9.0,66,0.00,,,0.00,Wunderground v.1.15,2013-02-28 10:20:00,
2013-02-28 04:25:00,44.4,33.7,30.11,NNW,345,6.0,9.0,66,0.00,,,0.00,Wunderground v.1.15,2013-02-28 10:25:00,
2013-02-28 04:30:00,44.4,33.7,30.11,NW,320,6.0,6.0,66,0.00,,,0.00,Wunderground v.1.15,2013-02-28 10:30:00,
2013-02-28 04:35:00,44.3,33.3,30.11,NNW,339,6.0,9.0,65,0.00,,,0.00,Wunderground v.1.15,2013-02-28 10:35:00,
2013-02-28 04:40:00,44.1,33.5,30.11,NNW,337,6.0,6.0,66,0.00,,,0.00,Wunderground v.1.15,2013-02-28 10:40:00,
2013-02-28 04:45:00,43.9,33.3,30.11,NNW,342,6.0,9.0,66,0.00,,,0.00,Wunderground v.1.15,2013-02-28 10:45:00,
2013-02-28 04:50:00,43.6,33.4,30.12,NNW,339,5.0,5.0,67,0.00,,,0.00,Wunderground v.1.15,2013-02-28 10:50:00,
2013-02-28 04:55:00,43.3,33.4,30.12,NW,319,4.0,9.0,68,0.00,,,0.00,Wunderground v.1.15,2013-02-28 10:55:00,
2013-02-28 05:00:00,43.2,33.3,30.12,NW,316,4.0,4.0,68,0.00,,,0.00,Wunderground v.1.15,2013-02-28 11:00:00,
2013-02-28 05:05:00,42.9,33.1,30.12,NNW,330,4.0,9.0,68,0.00,,,0.00,Wunderground v.1.15,2013-02-28 11:05:00,
2013-02-28 05:15:00,42.7,33.2,30.13,NNW,336,4.0,5.0,69,0.00,,,0.00,Wunderground v.1.15,2013-02-28 11:15:00,
2013-02-28 05:20:00,42.5,33.0,30.13,NNW,338,3.0,9.0,69,0.00,,,0.00,Wunderground v.1.15,2013-02-28 11:20:00,
2013-02-28 05:25:00,42.5,33.0,30.13,North,352,3.0,9.0,69,0.00,,,0.00,Wunderground v.1.15,2013-02-28 11:25:00,
2013-02-28 05:30:00,42.3,33.2,30.13,NNW,330,3.0,9.0,70,0.00,,,0.00,Wunderground v.1.15,2013-02-28 11:30:00,
2013-02-28 05:35:00,42.2,33.1,30.13,NW,324,3.0,9.0,70,0.00,,,0.00,Wunderground v.1.15,2013-02-28 11:35:00,
2013-02-28 05:45:00,42.2,32.8,30.13,NNW,342,3.0,9.0,69,0.00,,,0.00,Wunderground v.1.15,2013-02-28 11:45:00,
2013-02-28 05:50:00,42.2,32.8,30.13,NNW,338,4.0,9.0,69,0.00,,,0.00,Wunderground v.1.15,2013-02-28 11:50:00,
2013-02-28 05:55:00,42.2,32.8,30.13,NNW,340,4.0,9.0,69,0.00,,,0.00,Wunderground v.1.15,2013-02-28 11:55:00,
2013-02-28 06:00:00,42.2,32.8,30.13,NNW,342,4.0,9.0,69,0.00,,,0.00,Wunderground v.1.15,2013-02-28 12:00:00,
2013-02-28 06:05:00,42.2,32.8,30.13,NNW,332,4.0,9.0,69,0.00,,,0.00,Wunderground v.1.15,2013-02-28 12:05:00,
2013-02-28 06:10:00,42.0,32.6,30.14,NNW,338,4.0,4.0,69,0.00,,,0.00,Wunderground v.1.15,2013-02-28 12:10:00,
2013-02-28 06:20:00,41.9,32.5,30.14,NW,325,3.0,9.0,69,0.00,,,0.00,Wunderground v.1.15,2013-02-28 12:20:00,
2013-02-28 06:25:00,41.7,32.6,30.15,NW,308,3.0,9.0,70,0.00,,,0.00,Wunderground v.1.15,2013-02-28 12:25:00,
2013-02-28 06:30:00,41.7,32.3,30.15,WNW,303,3.0,3.0,69,0.00,,,0.00,Wunderground v.1.15,2013-02-28 12:30:00,
2013-02-28 06:35:00,41.6,32.2,30.16,NW,307,2.0,9.0,69,0.00,,,0.00,Wunderground v.1.15,2013-02-28 12:35:00,
2013-02-28 06:40:00,41.6,32.9,30.16,WNW,302,2.0,2.0,71,0.00,,,0.00,Wunderground v.1.15,2013-02-28 12:40:00,
2013-02-28 06:50:00,41.9,32.8,30.17,WNW,302,2.0,9.0,70,0.00,,,0.00,Wunderground v.1.15,2013-02-28 12:50:00,
2013-02-28 06:55:00,42.2,32.8,30.17,NW,312,2.0,9.0,69,0.00,,,0.00,Wunderground v.1.15,2013-02-28 12:55:00,
2013-02-28 07:00:00,42.5,33.4,30.17,NW,326,3.0,3.0,70,0.00,,,0.00,Wunderground v.1.15,2013-02-28 13:00:00,
2013-02-28 07:05:00,43.0,33.2,30.17,NNW,335,3.0,9.0,68,0.00,,,0.00,Wunderground v.1.15,2013-02-28 13:05:00,
2013-02-28 07:10:00,43.3,33.4,30.17,NW,326,4.0,9.0,68,0.00,,,0.00,Wunderground v.1.15,2013-02-28 13:10:00,
2013-02-28 07:15:00,43.3,32.7,30.17,NNW,333,4.0,9.0,66,0.00,,,0.00,Wunderground v.1.15,2013-02-28 13:15:00,
2013-02-28 07:20:00,43.3,33.1,30.17,NW,321,5.0,5.0,67,0.00,,,0.00,Wunderground v.1.15,2013-02-28 13:20:00,
2013-02-28 07:25:00,43.3,32.7,30.17,NW,319,5.0,9.0,66,0.00,,,0.00,Wunderground v.1.15,2013-02-28 13:25:00,
2013-02-28 07:30:00,43.5,32.9,30.17,WNW,302,5.0,5.0,66,0.00,,,0.00,Wunderground v.1.15,2013-02-28 13:30:00,
2013-02-28 07:35:00,43.7,33.1,30.18,North,357,5.0,6.0,66,0.00,,,0.00,Wunderground v.1.15,2013-02-28 13:35:00,
2013-02-28 07:40:00,43.9,32.9,30.19,NNW,338,6.0,9.0,65,0.00,,,0.00,Wunderground v.1.15,2013-02-28 13:40:00,
2013-02-28 07:45:00,44.0,32.6,30.18,NNW,338,6.0,9.0,64,0.00,,,0.00,Wunderground v.1.15,2013-02-28 13:45:00,
2013-02-28 07:55:00,44.0,32.2,30.18,North,1,6.0,10.0,63,0.00,,,0.00,Wunderground v.1.15,2013-02-28 13:55:00,
2013-02-28 08:00:00,43.9,32.5,30.19,North,3,7.0,7.0,64,0.00,,,0.00,Wunderground v.1.15,2013-02-28 14:00:00,
2013-02-28 08:05:00,44.0,32.2,30.19,North,11,6.0,9.0,63,0.00,,,0.00,Wunderground v.1.15,2013-02-28 14:05:00,
2013-02-28 08:10:00,43.9,31.7,30.20,North,352,7.0,7.0,62,0.00,,,0.00,Wunderground v.1.15,2013-02-28 14:10:00,
2013-02-28 08:15:00,43.9,32.1,30.20,North,3,8.0,8.0,63,0.00,,,0.00,Wunderground v.1.15,2013-02-28 14:15:00,
2013-02-28 08:20:00,43.8,31.6,30.20,NNE,23,8.0,9.0,62,0.00,,,0.00,Wunderground v.1.15,2013-02-28 14:20:00,
2013-02-28 08:30:00,43.9,31.7,30.20,NNW,335,8.0,8.0,62,0.00,,,0.00,Wunderground v.1.15,2013-02-28 14:30:00,
2013-02-28 08:35:00,44.1,31.5,30.21,NNW,338,7.0,9.0,61,0.00,,,0.00,Wunderground v.1.15,2013-02-28 14:35:00,
2013-02-28 08:40:00,44.3,31.7,30.21,North,359,7.0,7.0,61,0.00,,,0.00,Wunderground v.1.15,2013-02-28 14:40:00,
2013-02-28 08:45:00,44.5,31.5,30.21,North,6,7.0,10.0,60,0.00,,,0.00,Wunderground v.1.15,2013-02-28 14:45:00,
2013-02-28 08:50:00,44.4,31.8,30.21,North,3,8.0,9.0,61,0.00,,,0.00,Wunderground v.1.15,2013-02-28 14:50:00,
2013-02-28 09:00:00,44.5,31.5,30.21,NNW,327,9.0,9.0,60,0.00,,,0.00,Wunderground v.1.15,2013-02-28 15:00:00,
2013-02-28 09:05:00,44.7,31.7,30.21,North,349,7.0,9.0,60,0.00,,,0.00,Wunderground v.1.15,2013-02-28 15:05:00,
2013-02-28 09:10:00,44.8,31.8,30.21,NNW,332,7.0,7.0,60,0.00,,,0.00,Wunderground v.1.15,2013-02-28 15:10:00,
2013-02-28 09:15:00,44.8,31.8,30.21,NNW,330,8.0,8.0,60,0.00,,,0.00,Wunderground v.1.15,2013-02-28 15:15:00,
2013-02-28 09:20:00,44.8,31.3,30.23,NNW,347,8.0,10.0,59,0.00,,,0.00,Wunderground v.1.15,2013-02-28 15:20:00,
2013-02-28 09:25:00,44.9,31.4,30.21,NNW,329,8.0,10.0,59,0.00,,,0.00,Wunderground v.1.15,2013-02-28 15:25:00,
2013-02-28 09:30:00,45.1,31.6,30.21,NNW,333,8.0,8.0,59,0.00,,,0.00,Wunderground v.1.15,2013-02-28 15:30:00,
2013-02-28 09:40:00,45.0,31.1,30.21,NNW,338,9.0,9.0,58,0.00,,,0.00,Wunderground v.1.15,2013-02-28 15:40:00,
2013-02-28 09:45:00,44.9,31.0,30.21,North,349,10.0,10.0,58,0.00,,,0.00,Wunderground v.1.15,2013-02-28 15:45:00,
2013-02-28 09:50:00,45.2,31.3,30.21,North,358,9.0,9.0,58,0.00,,,0.00,Wunderground v.1.15,2013-02-28 15:50:00,
2013-02-28 09:55:00,45.3,31.4,30.21,North,5,8.0,9.0,58,0.00,,,0.00,Wunderground v.1.15,2013-02-28 15:55:00,
2013-02-28 10:00:00,45.9,32.8,30.21,NW,314,6.0,9.0,60,0.00,,,0.00,Wunderground v.1.15,2013-02-28 16:00:00,
2013-02-28 10:05:00,46.0,32.0,30.21,NNW,333,5.0,9.0,58,0.00,,,0.00,Wunderground v.1.15,2013-02-28 16:05:00,
2013-02-28 10:10:00,46.1,31.7,30.20,North,349,6.0,6.0,57,0.00,,,0.00,Wunderground v.1.15,2013-02-28 16:10:00,
2013-02-28 10:15:00,46.3,31.9,30.20,NNW,333,6.0,9.0,57,0.00,,,0.00,Wunderground v.1.15,2013-02-28 16:15:00,
2013-02-28 10:20:00,46.2,32.2,30.20,NNW,338,6.0,6.0,58,0.00,,,0.00,Wunderground v.1.15,2013-02-28 16:20:00,
2013-02-28 10:25:00,46.0,31.6,30.20,NW,325,7.0,7.0,57,0.00,,,0.00,Wunderground v.1.15,2013-02-28 16:25:00,
2013-02-28 10:35:00,46.2,32.2,30.20,NNW,333,8.0,11.0,58,0.00,,,0.00,Wunderground v.1.15,2013-02-28 16:35:00,
2013-02-28 10:40:00,46.3,31.9,30.20,West,272,7.0,7.0,57,0.00,,,0.00,Wunderground v.1.15,2013-02-28 16:40:00,
2013-02-28 10:45:00,46.5,31.6,30.20,North,3,6.0,9.0,56,0.00,,,0.00,Wunderground v.1.15,2013-02-28 16:45:00,
2013-02-28 10:50:00,47.0,31.7,30.20,NW,324,6.0,6.0,55,0.00,,,0.00,Wunderground v.1.15,2013-02-28 16:50:00,
2013-02-28 10:55:00,46.9,31.1,30.20,NNW,345,7.0,9.0,54,0.00,,,0.00,Wunderground v.1.15,2013-02-28 16:55:00,
2013-02-28 11:00:00,47.0,31.2,30.20,NNE,22,7.0,9.0,54,0.00,,,0.00,Wunderground v.1.15,2013-02-28 17:00:00,
2013-02-28 11:10:00,47.1,31.7,30.21,NNW,338,8.0,9.0,55,0.00,,,0.00,Wunderground v.1.15,2013-02-28 17:10:00,
2013-02-28 11:15:00,47.3,31.0,30.21,North,356,8.0,9.0,53,0.00,,,0.00,Wunderground v.1.15,2013-02-28 17:15:00,
2013-02-28 11:20:00,47.4,31.1,30.20,NNW,339,8.0,9.0,53,0.00,,,0.00,Wunderground v.1.15,2013-02-28 17:20:00,
2013-02-28 11:25:00,47.8,31.5,30.20,North,355,8.0,9.0,53,0.00,,,0.00,Wunderground v.1.15,2013-02-28 17:25:00,
2013-02-28 11:30:00,48.0,33.0,30.20,NW,313,7.0,7.0,56,0.00,,,0.00,Wunderground v.1.15,2013-02-28 17:30:00,
2013-02-28 11:40:00,48.0,32.1,30.19,NNW,335,7.0,9.0,54,0.00,,,0.00,Wunderground v.1.15,2013-02-28 17:40:00,
2013-02-28 11:45:00,48.1,32.7,30.19,North,352,8.0,9.0,55,0.00,,,0.00,Wunderground v.1.15,2013-02-28 17:45:00,
2013-02-28 11:50:00,48.4,32.0,30.19,North,356,7.0,7.0,53,0.00,,,0.00,Wunderground v.1.15,2013-02-28 17:50:00,
2013-02-28 11:55:00,48.5,32.6,30.18,North,3,7.0,9.0,54,0.00,,,0.00,Wunderground v.1.15,2013-02-28 17:55:00,
2013-02-28 12:00:00,48.5,32.1,30.18,NNW,340,7.0,9.0,53,0.00,,,0.00,Wunderground v.1.15,2013-02-28 18:00:00,
2013-02-28 12:05:00,48.5,31.7,30.18,NW,319,7.0,9.0,52,0.00,,,0.00,Wunderground v.1.15,2013-02-28 18:05:00,
2013-02-28 12:15:00,48.9,31.5,30.18,NNW,330,6.0,9.0,51,0.00,,,0.00,Wunderground v.1.15,2013-02-28 18:15:00,
2013-02-28 12:20:00,49.0,31.6,30.18,NNW,345,6.0,6.0,51,0.00,,,0.00,Wunderground v.1.15,2013-02-28 18:20:00,
2013-02-28 12:25:00,49.1,31.2,30.17,NW,305,7.0,11.0,50,0.00,,,0.00,Wunderground v.1.15,2013-02-28 18:25:00,
2013-02-28 12:30:00,49.2,32.3,30.17,NNW,333,7.0,9.0,52,0.00,,,0.00,Wunderground v.1.15,2013-02-28 18:30:00,
2013-02-28 12:35:00,49.4,30.5,30.17,WNW,299,7.0,9.0,48,0.00,,,0.00,Wunderground v.1.15,2013-02-28 18:35:00,
2013-02-28 12:45:00,49.6,30.7,30.16,NW,323,8.0,10.0,48,0.00,,,0.00,Wunderground v.1.15,2013-02-28 18:45:00,
2013-02-28 12:50:00,49.6,30.7,30.16,NNE,13,8.0,14.0,48,0.00,,,0.00,Wunderground v.1.15,2013-02-28 18:50:00,
2013-02-28 12:55:00,49.7,30.3,30.16,NNW,343,9.0,14.0,47,0.00,,,0.00,Wunderground v.1.15,2013-02-28 18:55:00,
2013-02-28 13:00:00,49.9,29.9,30.16,NE,34,9.0,11.0,46,0.00,,,0.00,Wunderground v.1.15,2013-02-28 19:00:00,
2013-02-28 13:05:00,49.9,30.5,30.15,NNW,339,8.0,11.0,47,0.00,,,0.00,Wunderground v.1.15,2013-02-28 19:05:00,
2013-02-28 13:10:00,49.9,29.9,30.15,NNE,21,8.0,9.0,46,0.00,,,0.00,Wunderground v.1.15,2013-02-28 19:10:00,
2013-02-28 13:20:00,49.5,29.6,30.14,NW,326,8.0,8.0,46,0.00,,,0.00,Wunderground v.1.15,2013-02-28 19:20:00,
2013-02-28 13:25:00,49.4,30.0,30.14,NW,309,7.0,9.0,47,0.00,,,0.00,Wunderground v.1.15,2013-02-28 19:25:00,
2013-02-28 13:30:00,49.7,30.3,30.14,NNW,335,6.0,9.0,47,0.00,,,0.00,Wunderground v.1.15,2013-02-28 19:30:00,
2013-02-28 13:35:00,49.3,30.4,30.14,NNE,13,7.0,9.0,48,0.00,,,0.00,Wunderground v.1.15,2013-02-28 19:35:00,
2013-02-28 13:40:00,49.1,30.2,30.14,NW,322,8.0,8.0,48,0.00,,,0.00,Wunderground v.1.15,2013-02-28 19:40:00,
2013-02-28 13:50:00,49.0,30.7,30.14,NNW,345,7.0,9.0,49,0.00,,,0.00,Wunderground v.1.15,2013-02-28 19:50:00,
2013-02-28 13:55:00,49.0,30.1,30.14,North,357,7.0,9.0,48,0.00,,,0.00,Wunderground v.1.15,2013-02-28 19:55:00,
2013-02-28 14:00:00,49.3,31.4,30.14,NW,323,6.0,9.0,50,0.00,,,0.00,Wunderground v.1.15,2013-02-28 20:00:00,
2013-02-28 14:05:00,49.3,30.4,30.14,NNW,345,5.0,9.0,48,0.00,,,0.00,Wunderground v.1.15,2013-02-28 20:05:00,
2013-02-28 14:10:00,49.4,31.5,30.13,NW,314,6.0,9.0,50,0.00,,,0.00,Wunderground v.1.15,2013-02-28 20:10:00,
2013-02-28 14:15:00,49.4,30.5,30.13,NNW,330,6.0,9.0,48,0.00,,,0.00,Wunderground v.1.15,2013-02-28 20:15:00,
2013-02-28 14:25:00,49.6,31.2,30.13,NNW,338,6.0,9.0,49,0.00,,,0.00,Wunderground v.1.15,2013-02-28 20:25:00,
2013-02-28 14:30:00,49.7,31.8,30.13,NW,307,6.0,9.0,50,0.00,,,0.00,Wunderground v.1.15,2013-02-28 20:30:00,
2013-02-28 14:35:00,49.7,31.8,30.12,NNW,341,5.0,9.0,50,0.00,,,0.00,Wunderground v.1.15,2013-02-28 20:35:00,
2013-02-28 14:40:00,49.9,31.5,30.12,NW,322,5.0,5.0,49,0.00,,,0.00,Wunderground v.1.15,2013-02-28 20:40:00,
2013-02-28 14:45:00,50.0,31.1,30.12,NNW,337,5.0,6.0,48,0.00,,,0.00,Wunderground v.1.15,2013-02-28 20:45:00,
2013-02-28 14:55:00,50.4,31.4,30.12,North,358,5.0,9.0,48,0.00,,,0.00,Wunderground v.1.15,2013-02-28 20:55:00,
2013-02-28 15:00:00,50.5,31.0,30.13,North,352,5.0,9.0,47,0.00,,,0.00,Wunderground v.1.15,2013-02-28 21:00:00,
2013-02-28 15:05:00,50.8,31.3,30.11,NNW,345,5.0,9.0,47,0.00,,,0.00,Wunderground v.1.15,2013-02-28 21:05:00,
2013-02-28 15:10:00,50.9,31.4,30.11,NNW,333,4.0,4.0,47,0.00,,,0.00,Wunderground v.1.15,2013-02-28 21:10:00,
2013-02-28 15:15:00,51.2,32.7,30.11,NW,309,3.0,9.0,49,0.00,,,0.00,Wunderground v.1.15,2013-02-28 21:15:00,
2013-02-28 15:20:00,51.4,31.8,30.10,North,1,3.0,9.0,47,0.00,,,0.00,Wunderground v.1.15,2013-02-28 21:20:00,
2013-02-28 15:25:00,51.7,32.1,30.10,North,351,4.0,9.0,47,0.00,,,0.00,Wunderground v.1.15,2013-02-28 21:25:00,
2013-02-28 15:30:00,51.8,32.2,30.10,WNW,297,6.0,9.0,47,0.00,,,0.00,Wunderground v.1.15,2013-02-28 21:30:00,
2013-02-28 15:35:00,51.8,32.2,30.10,NNE,20,6.0,9.0,47,0.00,,,0.00,Wunderground v.1.15,2013-02-28 21:35:00,
2013-02-28 15:40:00,51.8,31.7,30.10,NW,314,6.0,6.0,46,0.00,,,0.00,Wunderground v.1.15,2013-02-28 21:40:00,
2013-02-28 15:45:00,52.0,31.8,30.10,North,8,6.0,7.0,46,0.00,,,0.00,Wunderground v.1.15,2013-02-28 21:45:00,
2013-02-28 15:50:00,52.3,32.1,30.10,NW,321,5.0,5.0,46,0.00,,,0.00,Wunderground v.1.15,2013-02-28 21:50:00,
2013-02-28 16:00:00,52.6,31.3,30.10,NW,305,5.0,5.0,44,0.00,,,0.00,Wunderground v.1.15,2013-02-28 22:00:00,
2013-02-28 16:05:00,52.7,31.9,30.09,NNW,347,5.0,6.0,45,0.00,,,0.00,Wunderground v.1.15,2013-02-28 22:05:00,
2013-02-28 16:10:00,53.0,32.2,30.09,NW,307,4.0,4.0,45,0.00,,,0.00,Wunderground v.1.15,2013-02-28 22:10:00,
2013-02-28 16:15:00,53.3,31.9,30.09,NW,326,4.0,9.0,44,0.00,,,0.00,Wunderground v.1.15,2013-02-28 22:15:00,
2013-02-28 16:20:00,53.8,32.9,30.08,NNW,335,3.0,9.0,45,0.00,,,0.00,Wunderground v.1.15,2013-02-28 22:20:00,
2013-02-28 16:30:00,53.4,31.4,30.09,NW,310,6.0,9.0,43,0.00,,,0.00,Wunderground v.1.15,2013-02-28 22:30:00,
2013-02-28 16:35:00,53.3,30.8,30.09,NNE,30,5.0,9.0,42,0.00,,,0.00,Wunderground v.1.15,2013-02-28 22:35:00,
2013-02-28 16:40:00,53.4,30.9,30.09,North,349,5.0,9.0,42,0.00,,,0.00,Wunderground v.1.15,2013-02-28 22:40:00,
2013-02-28 16:45:00,53.5,30.4,30.09,North,354,5.0,9.0,41,0.00,,,0.00,Wunderground v.1.15,2013-02-28 22:45:00,
2013-02-28 16:50:00,53.5,30.4,30.09,North,351,4.0,4.0,41,0.00,,,0.00,Wunderground v.1.15,2013-02-28 22:50:00,
2013-02-28 16:55:00,53.6,29.8,30.09,NW,319,4.0,9.0,40,0.00,,,0.00,Wunderground v.1.15,2013-02-28 22:55:00,
2013-02-28 17:05:00,53.7,29.9,30.09,NNW,338,5.0,9.0,40,0.00,,,0.00,Wunderground v.1.15,2013-02-28 23:05:00,
2013-02-28 17:10:00,53.7,30.5,30.09,NNW,344,6.0,6.0,41,0.00,,,0.00,Wunderground v.1.15,2013-02-28 23:10:00,
2013-02-28 17:15:00,53.8,31.8,30.09,NW,305,5.0,9.0,43,0.00,,,0.00,Wunderground v.1.15,2013-02-28 23:15:00,
2013-02-28 17:20:00,53.6,31.0,30.09,NNW,333,5.0,9.0,42,0.00,,,0.00,Wunderground v.1.15,2013-02-28 23:20:00,
2013-02-28 17:25:00,53.2,30.1,30.10,NNW,337,6.0,9.0,41,0.00,,,0.00,Wunderground v.1.15,2013-02-28 23:25:00,
2013-02-28 17:35:00,52.5,30.0,30.10,NNW,340,6.0,9.0,42,0.00,,,0.00,Wunderground v.1.15,2013-02-28 23:35:00,
2013-02-28 17:40:00,52.4,30.5,30.10,NNW,330,6.0,6.0,43,0.00,,,0.00,Wunderground v.1.15,2013-02-28 23:40:00,
2013-02-28 17:45:00,52.4,30.5,30.10,NNW,336,5.0,9.0,43,0.00,,,0.00,Wunderground v.1.15,2013-02-28 23:45:00,
2013-02-28 17:50:00,52.2,30.4,30.11,NW,308,3.0,9.0,43,0.00,,,0.00,Wunderground v.1.15,2013-02-28 23:50:00,
2013-02-28 17:55:00,52.1,30.8,30.11,NW,324,3.0,9.0,44,0.00,,,0.00,Wunderground v.1.15,2013-02-28 23:55:00,
2013-02-28 18:00:00,51.8,31.1,30.11,NNW,330,2.0,2.0,45,0.00,,,0.00,Wunderground v.1.15,2013-03-01 00:00:00,
2013-02-28 18:10:00,51.2,30.6,30.11,NW,307,1.0,9.0,45,0.00,,,0.00,Wunderground v.1.15,2013-03-01 00:10:00,
2013-02-28 18:15:00,51.1,31.0,30.11,WNW,297,1.0,9.0,46,0.00,,,0.00,Wunderground v.1.15,2013-03-01 00:15:00,
2013-02-28 18:20:00,50.8,30.7,30.11,WNW,288,1.0,1.0,46,0.00,,,0.00,Wunderground v.1.15,2013-03-01 00:20:00,
2013-02-28 18:25:00,50.6,31.1,30.11,West,267,0.0,9.0,47,0.00,,,0.00,Wunderground v.1.15,2013-03-01 00:25:00,
2013-02-28 18:30:00,50.4,31.4,30.11,West,267,0.0,9.0,48,0.00,,,0.00,Wunderground v.1.15,2013-03-01 00:30:00,
2013-02-28 18:35:00,50.1,31.7,30.11,West,273,0.0,9.0,49,0.00,,,0.00,Wunderground v.1.15,2013-03-01 00:35:00,
2013-02-28 18:40:00,49.8,32.4,30.11,West,269,0.0,9.0,51,0.00,,,0.00,Wunderground v.1.15,2013-03-01 00:40:00,
2013-02-28 18:45:00,49.4,32.0,30.11,West,269,0.0,9.0,51,0.00,,,0.00,Wunderground v.1.15,2013-03-01 00:45:00,
2013-02-28 18:50:00,49.2,32.3,30.12,West,275,0.0,9.0,52,0.00,,,0.00,Wunderground v.1.15,2013-03-01 00:50:00,
2013-02-28 19:00:00,48.8,32.4,30.12,WNW,288,0.0,9.0,53,0.00,,,0.00,Wunderground v.1.15,2013-03-01 01:00:00,
2013-02-28 19:05:00,48.6,32.7,30.12,WNW,288,0.0,9.0,54,0.00,,,0.00,Wunderground v.1.15,2013-03-01 01:05:00,
2013-02-28 19:10:00,48.3,33.3,30.12,WSW,253,0.0,9.0,56,0.00,,,0.00,Wunderground v.1.15,2013-03-01 01:10:00,
2013-02-28 19:15:00,48.4,33.4,30.12,WSW,248,0.0,9.0,56,0.00,,,0.00,Wunderground v.1.15,2013-03-01 01:15:00,
2013-02-28 19:20:00,48.3,33.8,30.12,WSW,245,1.0,1.0,57,0.00,,,0.00,Wunderground v.1.15,2013-03-01 01:20:00,
2013-02-28 19:25:00,48.1,34.0,30.13,West,269,1.0,9.0,58,0.00,,,0.00,Wunderground v.1.15,2013-03-01 01:25:00,
2013-02-28 19:30:00,47.7,33.6,30.13,NW,308,0.0,9.0,58,0.00,,,0.00,Wunderground v.1.15,2013-03-01 01:30:00,
2013-02-28 19:35:00,47.5,33.4,30.13,West,271,1.0,9.0,58,0.00,,,0.00,Wunderground v.1.15,2013-03-01 01:35:00,
2013-02-28 19:45:00,47.4,33.8,30.13,West,269,0.0,9.0,59,0.00,,,0.00,Wunderground v.1.15,2013-03-01 01:45:00,
2013-02-28 19:50:00,47.8,34.2,30.13,West,264,0.0,9.0,59,0.00,,,0.00,Wunderground v.1.15,2013-03-01 01:50:00,
2013-02-28 19:55:00,47.8,34.6,30.14,WNW,283,1.0,9.0,60,0.00,,,0.00,Wunderground v.1.15,2013-03-01 01:55:00,
2013-02-28 20:00:00,47.5,34.7,30.14,West,273,1.0,9.0,61,0.00,,,0.00,Wunderground v.1.15,2013-03-01 02:00:00,
2013-02-28 20:05:00,47.8,34.2,30.14,West,264,1.0,9.0,59,0.00,,,0.00,Wunderground v.1.15,2013-03-01 02:05:00,
2013-02-28 20:15:00,48.2,34.5,30.15,WNW,290,1.0,9.0,59,0.00,,,0.00,Wunderground v.1.15,2013-03-01 02:15:00,
2013-02-28 20:20:00,48.1,34.4,30.15,WNW,289,1.0,9.0,59,0.00,,,0.00,Wunderground v.1.15,2013-03-01 02:20:00,
2013-02-28 20:25:00,48.0,35.2,30.14,WNW,288,0.0,9.0,61,0.00,,,0.00,Wunderground v.1.15,2013-03-01 02:25:00,
2013-02-28 20:30:00,47.9,35.5,30.14,WNW,293,0.0,9.0,62,0.00,,,0.00,Wunderground v.1.15,2013-03-01 02:30:00,
2013-02-28 20:35:00,47.8,35.8,30.15,WNW,300,1.0,9.0,63,0.00,,,0.00,Wunderground v.1.15,2013-03-01 02:35:00,
2013-02-28 20:40:00,47.7,36.1,30.15,West,271,1.0,1.0,64,0.00,,,0.00,Wunderground v.1.15,2013-03-01 02:40:00,
2013-02-28 20:50:00,47.8,36.2,30.15,West,264,1.0,9.0,64,0.00,,,0.00,Wunderground v.1.15,2013-03-01 02:50:00,
2013-02-28 20:55:00,47.9,36.3,30.15,West,278,1.0,9.0,64,0.00,,,0.00,Wunderground v.1.15,2013-03-01 02:55:00,
2013-02-28 21:00:00,48.0,36.0,30.15,WNW,284,1.0,9.0,63,0.00,,,0.00,Wunderground v.1.15,2013-03-01 03:00:00,
2013-02-28 21:05:00,48.0,36.4,30.15,WNW,295,1.0,9.0,64,0.00,,,0.00,Wunderground v.1.15,2013-03-01 03:05:00,
2013-02-28 21:10:00,48.0,36.4,30.16,WNW,295,1.0,1.0,64,0.00,,,0.00,Wunderground v.1.15,2013-03-01 03:10:00,
2013-02-28 21:20:00,47.8,36.6,30.15,WNW,296,1.0,9.0,65,0.00,,,0.00,Wunderground v.1.15,2013-03-01 03:20:00,
2013-02-28 21:25:00,47.8,36.2,30.16,West,273,1.0,9.0,64,0.00,,,0.00,Wunderground v.1.15,2013-03-01 03:25:00,
2013-02-28 21:30:00,47.9,36.7,30.16,WNW,290,0.0,9.0,65,0.00,,,0.00,Wunderground v.1.15,2013-03-01 03:30:00,
2013-02-28 21:35:00,47.8,37.0,30.16,West,264,0.0,9.0,66,0.00,,,0.00,Wunderground v.1.15,2013-03-01 03:35:00,
2013-02-28 21:40:00,47.8,37.0,30.16,West,275,1.0,1.0,66,0.00,,,0.00,Wunderground v.1.15,2013-03-01 03:40:00,
2013-02-28 21:45:00,47.8,37.0,30.16,WNW,295,1.0,9.0,66,0.00,,,0.00,Wunderground v.1.15,2013-03-01 03:45:00,
2013-02-28 21:55:00,47.5,37.1,30.16,WNW,302,0.0,9.0,67,0.00,,,0.00,Wunderground v.1.15,2013-03-01 03:55:00,
2013-02-28 22:00:00,47.6,36.4,30.16,West,271,0.0,9.0,65,0.00,,,0.00,Wunderground v.1.15,2013-03-01 04:00:00,
2013-02-28 22:05:00,47.5,36.3,30.16,West,266,1.0,9.0,65,0.00,,,0.00,Wunderground v.1.15,2013-03-01 04:05:00,
2013-02-28 22:10:00,47.3,36.5,30.16,West,281,1.0,1.0,66,0.00,,,0.00,Wunderground v.1.15,2013-03-01 04:10:00,
2013-02-28 22:15:00,47.1,36.3,30.16,WNW,288,0.0,9.0,66,0.00,,,0.00,Wunderground v.1.15,2013-03-01 04:15:00,
2013-02-28 22:25:00,46.5,36.9,30.16,West,270,1.0,9.0,69,0.00,,,0.00,Wunderground v.1.15,2013-03-01 04:25:00,
2013-02-28 22:30:00,46.3,37.0,30.16,WSW,257,1.0,9.0,70,0.00,,,0.00,Wunderground v.1.15,2013-03-01 04:30:00,
2013-02-28 22:35:00,46.2,37.0,30.16,WNW,285,1.0,9.0,70,0.00,,,0.00,Wunderground v.1.15,2013-03-01 04:35:00,
2013-02-28 22:40:00,46.1,37.2,30.16,West,274,1.0,9.0,71,0.00,,,0.00,Wunderground v.1.15,2013-03-01 04:40:00,
2013-02-28 22:45:00,46.0,37.5,30.16,WSW,251,1.0,9.0,72,0.00,,,0.00,Wunderground v.1.15,2013-03-01 04:45:00,
2013-02-28 22:50:00,45.6,37.4,30.16,WSW,256,1.0,9.0,73,0.00,,,0.00,Wunderground v.1.15,2013-03-01 04:50:00,
2013-02-28 23:00:00,45.2,37.7,30.16,WNW,300,1.0,9.0,75,0.00,,,0.00,Wunderground v.1.15,2013-03-01 05:00:00,
2013-02-28 23:05:00,44.8,37.7,30.16,West,278,1.0,9.0,76,0.00,,,0.00,Wunderground v.1.15,2013-03-01 05:05:00,
2013-02-28 23:10:00,44.4,38.0,30.15,West,264,1.0,9.0,78,0.00,,,0.00,Wunderground v.1.15,2013-03-01 05:10:00,
2013-02-28 23:15:00,44.5,38.1,30.15,WNW,282,1.0,9.0,78,0.00,,,0.00,Wunderground v.1.15,2013-03-01 05:15:00,
2013-02-28 23:20:00,44.3,37.9,30.15,WNW,285,1.0,9.0,78,0.00,,,0.00,Wunderground v.1.15,2013-03-01 05:20:00,
2013-02-28 23:25:00,44.1,38.0,30.15,NW,309,1.0,9.0,79,0.00,,,0.00,Wunderground v.1.15,2013-03-01 05:25:00,
2013-02-28 23:30:00,44.1,38.0,30.15,WNW,299,1.0,9.0,79,0.00,,,0.00,Wunderground v.1.15,2013-03-01 05:30:00,
2013-02-28 23:40:00,43.7,37.9,30.15,WNW,287,1.0,9.0,80,0.00,,,0.00,Wunderground v.1.15,2013-03-01 05:40:00,
2013-02-28 23:45:00,43.2,37.8,30.15,WNW,298,1.0,9.0,81,0.00,,,0.00,Wunderground v.1.15,2013-03-01 05:45:00,
2013-02-28 23:50:00,42.9,37.8,30.16,NW,311,2.0,9.0,82,0.00,,,0.00,Wunderground v.1.15,2013-03-01 05:50:00,
2013-02-28 23:55:00,42.6,37.5,30.16,WNW,303,1.0,9.0,82,0.00,,,0.00,Wunderground v.1.15,2013-03-01 05:55:00,